createdAt,value
2023-01-03T00:02:02.831Z,59.58
2023-01-03T00:04:31.129Z,54.75
2023-01-03T00:06:58.960Z,52.78
2023-01-03T00:09:29.679Z,55.00
2023-01-03T00:12:17.505Z,59.95
2023-01-03T00:14:47.322Z,59.45
2023-01-03T00:17:15.445Z,67.00
2023-01-03T00:19:44.168Z,64.45
2023-01-03T00:22:12.845Z,73.85
2023-01-03T00:24:40.855Z,77.25
2023-01-03T00:27:09.744Z,77.72
2023-01-03T00:29:38.606Z,76.13
2023-01-03T00:32:06.473Z,77.07
2023-01-03T00:34:34.967Z,75.25
2023-01-03T00:37:03.193Z,73.60
2023-01-03T00:39:31.310Z,78.72
2023-01-03T00:42:00.408Z,69.90
2023-01-03T00:44:28.385Z,71.55
2023-01-03T00:46:57.274Z,68.55
2023-01-03T00:49:25.563Z,60.67
2023-01-03T00:51:54.130Z,51.65
2023-01-03T00:54:22.348Z,51.10
2023-01-03T00:56:50.529Z,53.50
2023-01-03T00:59:19.352Z,55.13
2023-01-03T01:01:49.472Z,52.67
2023-01-03T01:04:29.204Z,51.55
2023-01-03T01:07:02.529Z,49.78
2023-01-03T01:09:32.406Z,49.00
2023-01-03T01:12:00.240Z,48.38
2023-01-03T01:14:29.326Z,49.80
2023-01-03T01:17:03.514Z,44.03
2023-01-03T01:19:39.179Z,43.65
2023-01-03T01:22:07.139Z,53.60
2023-01-03T01:24:35.141Z,47.00
2023-01-03T01:27:03.697Z,49.05
2023-01-03T01:29:32.653Z,48.35
2023-01-03T01:32:01.917Z,48.50
2023-01-03T01:34:30.259Z,48.97
2023-01-03T01:36:59.199Z,46.08
2023-01-03T01:39:28.618Z,42.55
2023-01-03T01:42:30.530Z,44.55
2023-01-03T01:45:06.842Z,44.45
2023-01-03T01:48:00.211Z,42.45
2023-01-03T01:50:46.056Z,40.00
2023-01-03T01:53:24.382Z,47.67
2023-01-03T01:56:05.999Z,46.83
2023-01-03T01:58:38.491Z,42.85
2023-01-03T02:01:13.166Z,52.42
2023-01-03T02:03:45.662Z,52.72
2023-01-03T02:06:14.700Z,48.67
2023-01-03T02:08:42.789Z,47.90
2023-01-03T02:11:33.786Z,47.88
2023-01-03T02:14:08.674Z,47.00
2023-01-03T02:17:15.859Z,43.55
2023-01-03T02:19:59.081Z,43.83
2023-01-03T02:22:31.239Z,44.15
2023-01-03T02:25:28.224Z,42.15
2023-01-03T02:28:07.859Z,41.95
2023-01-03T02:30:52.478Z,41.58
2023-01-03T02:33:24.623Z,38.75
2023-01-03T02:36:21.217Z,37.85
2023-01-03T02:39:06.830Z,37.20
2023-01-03T02:42:18.520Z,35.63
2023-01-03T02:45:11.483Z,37.53
2023-01-03T02:48:11.190Z,39.30
2023-01-03T02:50:48.554Z,36.22
2023-01-03T02:53:23.974Z,36.88
2023-01-03T02:55:52.197Z,36.80
2023-01-03T02:58:22.625Z,36.63
2023-01-03T03:00:52.334Z,37.90
2023-01-03T03:03:25.847Z,36.67
2023-01-03T03:06:01.924Z,34.70
2023-01-03T03:08:31.310Z,34.80
2023-01-03T03:11:17.844Z,33.55
2023-01-03T03:16:44.271Z,38.97
2023-01-03T03:19:52.857Z,34.72
2023-01-03T03:22:49.312Z,38.28
2023-01-03T03:25:26.701Z,32.80
2023-01-03T03:28:22.496Z,35.65
2023-01-03T03:30:55.051Z,42.25
2023-01-03T03:33:23.893Z,34.58
2023-01-03T03:36:00.584Z,34.58
2023-01-03T03:38:35.833Z,38.10
2023-01-03T03:41:40.069Z,39.78
2023-01-03T03:44:45.188Z,32.67
2023-01-03T03:47:37.218Z,37.70
2023-01-03T03:50:43.163Z,34.83
2023-01-03T03:53:11.156Z,37.42
2023-01-03T03:55:52.608Z,37.20
2023-01-03T03:58:48.150Z,39.45
2023-01-03T04:01:19.125Z,36.95
2023-01-03T04:03:58.967Z,40.60
2023-01-03T04:06:42.227Z,38.20
2023-01-03T04:09:10.146Z,38.00
2023-01-03T04:11:38.354Z,37.97
2023-01-03T04:14:06.269Z,36.65
2023-01-03T04:16:34.286Z,39.88
2023-01-03T04:19:04.580Z,33.90
2023-01-03T04:21:32.854Z,43.08
2023-01-03T04:24:00.819Z,44.13
2023-01-03T04:26:29.980Z,38.42
2023-01-03T04:28:58.187Z,34.35
2023-01-03T04:31:26.205Z,36.53
2023-01-03T04:33:54.262Z,33.70
2023-01-03T04:36:22.068Z,34.75
2023-01-03T04:38:50.516Z,39.92
2023-01-03T04:41:18.322Z,35.22
2023-01-03T04:44:05.000Z,30.75
2023-01-03T04:46:34.862Z,37.35
2023-01-03T04:49:03.125Z,33.00
2023-01-03T04:51:31.529Z,36.30
2023-01-03T04:53:59.937Z,30.85
2023-01-03T04:56:33.695Z,34.53
2023-01-03T04:59:01.821Z,35.22
2023-01-03T05:01:29.923Z,35.90
2023-01-03T05:03:59.354Z,37.22
2023-01-03T05:06:27.641Z,32.85
2023-01-03T05:08:55.841Z,32.42
2023-01-03T05:11:24.044Z,34.63
2023-01-03T05:13:52.366Z,32.92
2023-01-03T05:16:22.897Z,38.40
2023-01-03T05:18:53.974Z,34.85
2023-01-03T05:21:40.611Z,36.58
2023-01-03T05:24:29.335Z,33.72
2023-01-03T05:26:59.636Z,32.15
2023-01-03T05:29:27.651Z,40.92
2023-01-03T05:31:55.670Z,36.45
2023-01-03T05:34:23.618Z,35.75
2023-01-03T05:36:51.885Z,35.75
2023-01-03T05:39:22.596Z,41.63
2023-01-03T05:41:59.494Z,42.22
2023-01-03T05:44:32.013Z,36.53
2023-01-03T05:47:02.196Z,43.42
2023-01-03T05:49:30.560Z,47.00
2023-01-03T05:51:58.421Z,46.13
2023-01-03T05:54:26.301Z,50.55
2023-01-03T05:56:54.130Z,47.33
2023-01-03T05:59:22.946Z,44.63
2023-01-03T06:01:51.187Z,43.88
2023-01-03T06:04:19.201Z,46.13
2023-01-03T06:06:48.531Z,44.80
2023-01-03T06:09:17.176Z,39.40
2023-01-03T06:11:45.225Z,47.47
2023-01-03T06:14:13.251Z,43.55
2023-01-03T06:16:59.484Z,43.80
2023-01-03T06:19:27.886Z,40.63
2023-01-03T06:21:55.943Z,43.97
2023-01-03T06:24:23.909Z,39.15
2023-01-03T06:26:51.645Z,40.85
2023-01-03T06:29:19.407Z,41.75
2023-01-03T06:31:47.920Z,40.60
2023-01-03T06:34:16.406Z,36.17
2023-01-03T06:36:44.652Z,39.50
2023-01-03T06:39:12.585Z,40.55
2023-01-03T06:41:41.556Z,42.70
2023-01-03T06:44:11.204Z,35.47
2023-01-03T06:46:57.527Z,35.90
2023-01-03T06:49:44.495Z,40.95
2023-01-03T06:52:34.485Z,39.97
2023-01-03T06:55:02.500Z,37.60
2023-01-03T06:57:31.186Z,36.45
2023-01-03T06:59:59.566Z,38.28
2023-01-03T07:02:30.039Z,37.40
2023-01-03T07:04:59.709Z,35.47
2023-01-03T07:07:27.997Z,35.65
2023-01-03T07:09:58.611Z,39.33
2023-01-03T07:12:46.560Z,32.15
2023-01-03T07:15:15.145Z,35.08
2023-01-03T07:17:43.536Z,38.72
2023-01-03T07:20:11.467Z,34.95
2023-01-03T07:22:39.309Z,38.88
2023-01-03T07:25:07.996Z,33.53
2023-01-03T07:27:35.985Z,36.28
2023-01-03T07:30:04.114Z,34.05
2023-01-03T07:32:32.120Z,39.63
2023-01-03T07:35:01.504Z,36.58
2023-01-03T07:37:30.820Z,36.35
2023-01-03T07:39:58.978Z,31.60
2023-01-03T07:42:45.618Z,28.67
2023-01-03T07:45:13.703Z,33.72
2023-01-03T07:47:45.598Z,40.63
2023-01-03T07:50:13.550Z,38.45
2023-01-03T07:52:41.794Z,34.50
2023-01-03T07:55:09.748Z,37.80
2023-01-03T07:57:37.496Z,38.15
2023-01-03T08:00:05.756Z,35.72
2023-01-03T08:02:40.916Z,37.60
2023-01-03T08:05:09.435Z,35.05
2023-01-03T08:07:38.052Z,36.35
2023-01-03T08:10:24.777Z,34.10
2023-01-03T08:13:11.470Z,33.45
2023-01-03T08:15:43.181Z,32.85
2023-01-03T08:18:12.602Z,36.00
2023-01-03T08:20:42.894Z,34.03
2023-01-03T08:23:11.042Z,34.60
2023-01-03T08:25:43.161Z,34.72
2023-01-03T08:28:11.233Z,30.08
2023-01-03T08:30:47.465Z,29.80
2023-01-03T08:33:22.576Z,34.33
2023-01-03T08:35:55.928Z,34.88
2023-01-03T08:38:27.300Z,36.63
2023-01-03T08:40:55.767Z,28.67
2023-01-03T08:43:23.844Z,32.35
2023-01-03T08:45:52.081Z,32.20
2023-01-03T08:48:28.354Z,30.95
2023-01-03T08:50:57.845Z,35.47
2023-01-03T08:53:26.202Z,34.13
2023-01-03T08:55:56.332Z,33.15
2023-01-03T08:58:24.793Z,28.90
2023-01-03T09:00:52.898Z,33.60
2023-01-03T09:03:23.406Z,33.30
2023-01-03T09:05:51.317Z,40.13
2023-01-03T09:08:22.599Z,31.77
2023-01-03T09:10:54.055Z,34.97
2023-01-03T09:13:22.327Z,32.35
2023-01-03T09:16:12.476Z,29.13
2023-01-03T09:18:42.255Z,31.05
2023-01-03T09:21:12.026Z,29.63
2023-01-03T09:23:40.119Z,29.15
2023-01-03T09:26:10.266Z,36.70
2023-01-03T09:28:43.020Z,31.98
2023-01-03T09:31:10.930Z,28.02
2023-01-03T09:33:40.162Z,31.63
2023-01-03T09:36:08.400Z,26.65
2023-01-03T09:38:44.650Z,28.52
2023-01-03T09:41:17.692Z,30.73
2023-01-03T09:43:47.473Z,27.42
2023-01-03T09:46:21.671Z,30.63
2023-01-03T09:48:49.721Z,32.03
2023-01-03T09:51:51.497Z,35.38
2023-01-03T09:55:02.049Z,33.63
2023-01-03T09:57:53.637Z,29.67
2023-01-03T10:00:55.490Z,29.30
2023-01-03T10:03:50.954Z,30.10
2023-01-03T10:06:28.944Z,29.13
2023-01-03T10:09:30.915Z,32.72
2023-01-03T10:12:59.595Z,35.15
2023-01-03T10:16:10.479Z,33.90
2023-01-03T10:18:43.834Z,35.33
2023-01-03T10:21:33.908Z,36.85
2023-01-03T10:24:03.416Z,36.92
2023-01-03T10:26:33.189Z,34.45
2023-01-03T10:29:08.557Z,31.52
2023-01-03T10:32:04.911Z,32.70
2023-01-03T10:34:33.619Z,35.03
2023-01-03T10:37:01.996Z,35.22
2023-01-03T10:39:32.137Z,37.95
2023-01-03T10:42:02.428Z,34.83
2023-01-03T10:44:32.675Z,36.03
2023-01-03T10:47:11.714Z,38.75
2023-01-03T10:49:43.721Z,38.60
2023-01-03T10:52:19.388Z,42.17
2023-01-03T10:55:00.373Z,41.85
2023-01-03T10:57:39.712Z,39.70
2023-01-03T11:00:40.165Z,37.13
2023-01-03T11:03:26.527Z,39.70
2023-01-03T11:06:00.156Z,39.45
2023-01-03T11:08:49.600Z,44.42
2023-01-03T11:11:29.535Z,45.47
2023-01-03T11:14:22.978Z,42.22
2023-01-03T11:16:55.571Z,45.97
2023-01-03T11:19:24.300Z,50.28
2023-01-03T11:22:18.581Z,45.50
2023-01-03T11:24:58.500Z,47.08
2023-01-03T11:27:51.306Z,44.28
2023-01-03T11:30:25.817Z,44.90
2023-01-03T11:33:17.364Z,48.97
2023-01-03T11:36:16.658Z,47.13
2023-01-03T11:38:52.620Z,47.38
2023-01-03T11:41:23.426Z,49.72
2023-01-03T11:44:15.479Z,54.80
2023-01-03T11:47:17.901Z,51.83
2023-01-03T11:50:24.859Z,55.80
2023-01-03T11:53:03.670Z,52.38
2023-01-03T11:55:58.021Z,51.08
2023-01-03T11:58:54.986Z,49.58
2023-01-03T12:02:00.866Z,56.78
2023-01-03T12:04:36.773Z,53.63
2023-01-03T14:08:53.707Z,59.67
2023-01-03T14:11:53.411Z,59.75
2023-01-03T14:14:24.883Z,54.05
2023-01-03T14:16:59.091Z,57.55
2023-01-03T14:19:33.180Z,54.65
2023-01-03T14:22:27.246Z,57.83
2023-01-03T14:24:58.337Z,54.05
2023-01-03T14:27:33.920Z,55.83
2023-01-03T14:30:05.647Z,55.33
2023-01-03T14:32:37.427Z,55.08
2023-01-03T14:35:05.909Z,56.72
2023-01-03T14:37:35.539Z,53.10
2023-01-03T14:40:07.687Z,51.10
2023-01-03T14:42:41.063Z,60.17
2023-01-03T14:45:19.608Z,51.83
2023-01-03T14:47:48.724Z,51.42
2023-01-03T14:50:32.837Z,47.55
2023-01-03T14:53:03.856Z,48.55
2023-01-03T14:55:33.933Z,48.40
2023-01-03T14:58:05.650Z,49.10
2023-01-03T15:00:35.967Z,50.45
2023-01-03T15:03:05.388Z,44.08
2023-01-03T15:05:41.131Z,48.75
2023-01-03T15:08:15.606Z,51.55
2023-01-03T15:10:52.008Z,52.45
2023-01-03T15:13:36.481Z,57.40
2023-01-03T15:16:08.943Z,54.22
2023-01-03T15:18:37.791Z,56.38
2023-01-03T15:21:07.131Z,55.55
2023-01-03T15:23:38.644Z,53.15
2023-01-03T15:26:08.664Z,47.70
2023-01-03T15:28:53.309Z,58.90
2023-01-03T15:31:28.962Z,56.17
2023-01-03T15:34:14.202Z,61.85
2023-01-03T15:36:45.869Z,64.00
2023-01-03T15:39:24.854Z,56.08
2023-01-03T15:45:30.072Z,65.57
2023-01-03T15:47:59.641Z,64.35
2023-01-03T15:50:44.884Z,62.13
2023-01-03T15:53:43.690Z,60.33
2023-01-03T15:56:30.294Z,59.92
2023-01-03T15:58:58.567Z,58.80
2023-01-03T16:01:27.133Z,58.60
2023-01-03T16:03:56.168Z,64.75
2023-01-03T16:06:24.085Z,62.00
2023-01-03T16:08:54.238Z,64.72
2023-01-03T16:11:33.449Z,68.28
2023-01-03T16:14:10.667Z,60.80
2023-01-03T16:16:40.634Z,68.45
2023-01-03T16:19:10.972Z,63.95
2023-01-03T16:21:38.867Z,65.15
2023-01-03T16:24:06.840Z,68.95
2023-01-03T16:26:34.812Z,61.72
2023-01-03T16:29:02.739Z,66.85
2023-01-03T16:31:32.125Z,71.90
2023-01-03T16:34:00.068Z,69.05
2023-01-03T16:36:37.570Z,69.22
2023-01-03T16:39:26.241Z,62.63
2023-01-03T16:42:13.178Z,65.97
2023-01-03T16:44:46.782Z,59.10
2023-01-03T16:47:22.301Z,61.13
2023-01-03T16:49:58.504Z,63.85
2023-01-03T16:54:54.922Z,55.22
2023-01-03T16:57:22.903Z,54.60
2023-01-03T16:59:50.704Z,52.40
2023-01-03T17:02:18.830Z,62.75
2023-01-03T17:04:47.097Z,59.13
2023-01-03T17:07:19.351Z,49.95
2023-01-03T17:09:48.231Z,65.95
2023-01-03T17:12:17.019Z,56.35
2023-01-03T17:14:45.047Z,58.70
2023-01-03T17:17:36.829Z,51.10
2023-01-03T17:20:16.794Z,53.53
2023-01-03T17:22:59.704Z,56.72
2023-01-03T17:25:27.866Z,57.05
2023-01-03T17:27:57.114Z,59.38
2023-01-03T17:30:26.667Z,48.88
2023-01-03T17:32:55.413Z,48.95
2023-01-03T17:35:23.655Z,51.40
2023-01-03T17:40:46.710Z,51.47
2023-01-03T17:43:20.171Z,48.25
2023-01-03T17:46:07.702Z,49.35
2023-01-03T17:48:54.547Z,46.50
2023-01-03T17:51:22.505Z,44.05
2023-01-03T17:53:50.553Z,51.90
2023-01-03T17:56:19.469Z,40.70
2023-01-03T17:59:12.121Z,40.08
2023-01-03T18:01:42.150Z,43.92
2023-01-03T18:04:13.267Z,40.35
2023-01-03T18:06:41.113Z,49.85
2023-01-03T18:09:13.016Z,44.50
2023-01-03T18:11:41.422Z,41.25
2023-01-03T18:14:15.541Z,44.47
2023-01-03T18:16:43.597Z,44.53
2023-01-03T18:19:11.769Z,48.28
2023-01-03T18:21:39.846Z,45.22
2023-01-03T18:24:17.737Z,40.25
2023-01-03T18:26:52.790Z,49.25
2023-01-03T18:29:20.845Z,47.10
2023-01-03T18:31:48.741Z,44.08
2023-01-03T18:34:16.963Z,43.42
2023-01-03T18:36:50.288Z,45.63
2023-01-03T18:39:21.338Z,49.75
2023-01-03T18:41:58.395Z,46.10
2023-01-03T18:44:28.202Z,45.90
2023-01-03T18:46:56.781Z,45.72
2023-01-03T18:49:25.869Z,49.58
2023-01-03T18:51:54.091Z,38.22
2023-01-03T18:54:48.641Z,41.38
2023-01-03T18:57:16.461Z,45.20
2023-01-03T18:59:46.794Z,40.03
2023-01-03T19:02:20.095Z,45.15
2023-01-03T19:04:53.153Z,41.08
2023-01-03T19:07:28.124Z,41.45
2023-01-03T19:09:56.240Z,45.42
2023-01-03T19:12:24.575Z,51.85
2023-01-03T19:14:52.945Z,47.47
2023-01-03T19:17:21.210Z,48.85
2023-01-03T19:19:53.584Z,47.55
2023-01-03T19:22:34.339Z,51.95
2023-01-03T19:25:18.607Z,53.03
2023-01-03T19:27:48.692Z,55.78
2023-01-03T19:30:45.712Z,52.25
2023-01-03T19:33:15.207Z,47.83
2023-01-03T19:35:45.074Z,44.85
2023-01-03T19:38:13.516Z,49.00
2023-01-03T19:40:41.860Z,44.85
2023-01-03T19:43:20.342Z,49.45
2023-01-03T19:45:48.461Z,47.58
2023-01-03T19:48:18.147Z,51.95
2023-01-03T19:50:46.159Z,47.20
2023-01-03T19:53:14.468Z,50.45
2023-01-03T19:55:44.646Z,45.10
2023-01-03T19:58:16.816Z,49.33
2023-01-03T20:00:44.903Z,47.88
2023-01-03T20:03:33.776Z,42.47
2023-01-03T20:06:02.095Z,42.17
2023-01-03T20:08:30.198Z,49.63
2023-01-03T20:10:58.448Z,41.55
2023-01-03T20:13:27.066Z,40.33
2023-01-03T20:15:58.150Z,42.33
2023-01-03T20:18:27.203Z,43.95
2023-01-03T20:21:01.251Z,43.85
2023-01-03T20:23:32.917Z,36.38
2023-01-03T20:26:01.118Z,34.38
2023-01-03T20:28:29.603Z,38.55
2023-01-03T20:30:58.936Z,37.13
2023-01-03T20:33:27.355Z,31.25
2023-01-03T20:36:12.768Z,31.92
2023-01-03T20:38:45.428Z,37.60
2023-01-03T20:41:14.600Z,35.78
2023-01-03T20:43:43.213Z,45.50
2023-01-03T20:46:20.220Z,38.10
2023-01-03T20:48:55.645Z,33.63
2023-01-03T20:51:26.461Z,42.05
2023-01-03T20:53:55.573Z,36.15
2023-01-03T20:56:25.184Z,37.00
2023-01-03T20:58:53.034Z,35.58
2023-01-03T21:01:22.191Z,36.35
2023-01-03T21:03:50.204Z,33.08
2023-01-03T21:06:23.268Z,34.83
2023-01-03T21:08:54.880Z,37.58
2023-01-03T21:11:30.229Z,41.72
2023-01-03T21:13:59.350Z,34.08
2023-01-03T21:16:35.366Z,37.28
2023-01-03T21:19:23.687Z,34.45
2023-01-03T21:21:55.277Z,30.40
2023-01-03T21:24:24.047Z,28.98
2023-01-03T21:26:52.448Z,32.25
2023-01-03T21:29:20.431Z,35.45
2023-01-03T21:31:48.393Z,31.58
2023-01-03T21:34:18.042Z,30.83
2023-01-03T21:36:46.104Z,29.63
2023-01-03T21:39:14.182Z,28.88
2023-01-03T21:42:00.715Z,31.00
2023-01-03T21:46:56.591Z,24.00
2023-01-03T21:49:24.389Z,28.17
2023-01-03T21:51:52.430Z,28.08
2023-01-03T21:54:20.355Z,26.42
2023-01-03T21:56:48.213Z,29.10
2023-01-03T21:59:16.985Z,24.08
2023-01-03T22:02:06.636Z,24.48
2023-01-03T22:04:35.317Z,24.85
2023-01-03T22:07:03.151Z,24.65
2023-01-03T22:09:50.444Z,23.23
2023-01-03T22:12:18.730Z,21.08
2023-01-03T22:14:46.920Z,24.63
2023-01-03T22:17:16.742Z,28.77
2023-01-03T22:19:44.588Z,23.67
2023-01-03T22:22:13.363Z,27.67
2023-01-03T22:24:42.366Z,23.88
2023-01-03T22:27:10.264Z,24.20
2023-01-03T22:29:38.182Z,23.77
2023-01-03T22:32:06.131Z,27.45
2023-01-03T22:34:34.884Z,22.33
2023-01-03T22:37:02.901Z,27.42
2023-01-03T22:39:30.911Z,24.35
2023-01-03T22:41:58.801Z,27.15
2023-01-03T22:44:26.687Z,27.20
2023-01-03T22:46:54.723Z,25.10
2023-01-03T22:49:22.604Z,28.83
2023-01-03T22:51:50.485Z,28.10
2023-01-03T22:54:19.329Z,27.02
2023-01-03T22:56:49.712Z,35.33
2023-01-03T22:59:18.005Z,27.80
2023-01-03T23:01:46.681Z,29.88
2023-01-03T23:04:16.134Z,30.15
2023-01-03T23:06:44.007Z,34.95
2023-01-03T23:09:12.852Z,29.92
2023-01-03T23:11:59.611Z,26.15
2023-01-03T23:14:27.821Z,29.67
2023-01-03T23:16:56.214Z,30.13
2023-01-03T23:19:25.489Z,33.58
2023-01-03T23:21:58.836Z,29.40
2023-01-03T23:24:36.138Z,31.58
2023-01-03T23:27:04.121Z,28.50
2023-01-03T23:29:32.309Z,27.73
2023-01-03T23:32:00.870Z,31.15
2023-01-03T23:34:28.714Z,32.00
2023-01-03T23:36:56.615Z,30.92
2023-01-03T23:39:24.783Z,29.13
2023-01-03T23:41:52.648Z,43.40
2023-01-03T23:44:20.421Z,28.42
2023-01-03T23:46:48.310Z,30.20
2023-01-03T23:49:16.431Z,29.35
2023-01-03T23:51:44.284Z,27.92
2023-01-03T23:54:12.746Z,25.85
2023-01-03T23:56:40.671Z,27.27
2023-01-03T23:59:08.515Z,28.83
